sensor_id;sensor_type;location;lat;lon;timestamp;pressure;altitude;pressure_sealevel;temperature;humidity
41140;BME280;26881;48.784;9.192;2023-02-20T00:02:18;99726.06;;;10.06;70.57
41140;BME280;26881;48.784;9.192;2023-02-20T00:07:40;99719.88;;;10.08;70.61
41140;BME280;26881;48.784;9.192;2023-02-20T00:13:01;99724.25;;;10.08;70.39
41140;BME280;26881;48.784;9.192;2023-02-20T00:18:23;99723.63;;;10.01;70.92
41140;BME280;26881;48.784;9.192;2023-02-20T00:23:45;99709.66;;;10.02;71.06
41140;BME280;26881;48.784;9.192;2023-02-20T00:29:07;99710.06;;;9.91;71.76
41140;BME280;26881;48.784;9.192;2023-02-20T00:34:28;99706.34;;;9.97;71.06
41140;BME280;26881;48.784;9.192;2023-02-20T00:39:50;99712.47;;;9.98;71.15
41140;BME280;26881;48.784;9.192;2023-02-20T00:45:13;99726.19;;;10.03;70.97
41140;BME280;26881;48.784;9.192;2023-02-20T00:50:36;99739.88;;;10.09;70.91
41140;BME280;26881;48.784;9.192;2023-02-20T00:55:57;99736.66;;;10.03;70.98
41140;BME280;26881;48.784;9.192;2023-02-20T01:01:19;99741.97;;;10.00;71.47
41140;BME280;26881;48.784;9.192;2023-02-20T01:06:41;99738.69;;;9.95;71.60
41140;BME280;26881;48.784;9.192;2023-02-20T01:12:03;99732.00;;;9.87;71.59
41140;BME280;26881;48.784;9.192;2023-02-20T01:17:25;99747.16;;;9.78;71.59
41140;BME280;26881;48.784;9.192;2023-02-20T01:22:46;99730.00;;;9.70;71.83
41140;BME280;26881;48.784;9.192;2023-02-20T01:28:08;99713.72;;;9.64;72.04
41140;BME280;26881;48.784;9.192;2023-02-20T01:33:30;99721.16;;;9.75;71.48
41140;BME280;26881;48.784;9.192;2023-02-20T01:38:52;99716.66;;;9.78;71.16
41140;BME280;26881;48.784;9.192;2023-02-20T01:44:27;99709.84;;;9.74;70.64
41140;BME280;26881;48.784;9.192;2023-02-20T01:49:56;99703.59;;;9.78;69.59
41140;BME280;26881;48.784;9.192;2023-02-20T01:55:43;99705.06;;;9.62;70.04
41140;BME280;26881;48.784;9.192;2023-02-20T02:01:08;99708.66;;;9.59;69.73
41140;BME280;26881;48.784;9.192;2023-02-20T02:06:33;99703.13;;;9.43;70.37
41140;BME280;26881;48.784;9.192;2023-02-20T02:11:57;99697.88;;;9.45;70.22
41140;BME280;26881;48.784;9.192;2023-02-20T02:17:31;99702.47;;;9.38;70.15
41140;BME280;26881;48.784;9.192;2023-02-20T02:23:02;99687.25;;;9.26;71.05
41140;BME280;26881;48.784;9.192;2023-02-20T02:40:09;99697.75;;;9.48;70.64
41140;BME280;26881;48.784;9.192;2023-02-20T02:45:46;99693.63;;;9.42;70.33
41140;BME280;26881;48.784;9.192;2023-02-20T02:51:16;99691.81;;;9.19;71.01
41140;BME280;26881;48.784;9.192;2023-02-20T02:56:42;99685.13;;;9.12;71.39
41140;BME280;26881;48.784;9.192;2023-02-20T03:02:09;99677.41;;;9.09;71.61
41140;BME280;26881;48.784;9.192;2023-02-20T03:07:35;99680.53;;;9.19;71.66
41140;BME280;26881;48.784;9.192;2023-02-20T03:13:03;99679.78;;;9.15;71.70
41140;BME280;26881;48.784;9.192;2023-02-20T03:18:33;99677.78;;;8.98;72.32
41140;BME280;26881;48.784;9.192;2023-02-20T03:24:00;99677.78;;;8.98;72.90
41140;BME280;26881;48.784;9.192;2023-02-20T03:29:32;99674.69;;;8.87;73.78
41140;BME280;26881;48.784;9.192;2023-02-20T03:34:56;99664.94;;;8.92;73.81
41140;BME280;26881;48.784;9.192;2023-02-20T03:40:38;99669.13;;;8.96;73.70
41140;BME280;26881;48.784;9.192;2023-02-20T03:46:21;99690.53;;;9.06;73.25
41140;BME280;26881;48.784;9.192;2023-02-20T03:51:45;99677.09;;;8.93;74.14
41140;BME280;26881;48.784;9.192;2023-02-20T03:57:15;99684.53;;;9.04;73.10
41140;BME280;26881;48.784;9.192;2023-02-20T04:02:41;99678.50;;;9.02;73.25
41140;BME280;26881;48.784;9.192;2023-02-20T04:08:10;99676.16;;;8.94;73.19
41140;BME280;26881;48.784;9.192;2023-02-20T04:13:36;99667.16;;;8.78;73.54
41140;BME280;26881;48.784;9.192;2023-02-20T04:18:59;99662.88;;;8.77;73.65
41140;BME280;26881;48.784;9.192;2023-02-20T04:24:54;99656.09;;;8.71;73.53
41140;BME280;26881;48.784;9.192;2023-02-20T04:30:17;99656.88;;;8.73;73.89
41140;BME280;26881;48.784;9.192;2023-02-20T04:35:40;99645.91;;;8.63;74.64
41140;BME280;26881;48.784;9.192;2023-02-20T04:41:01;99657.34;;;8.59;74.40
41140;BME280;26881;48.784;9.192;2023-02-20T04:46:23;99643.47;;;8.59;74.63
41140;BME280;26881;48.784;9.192;2023-02-20T04:51:45;99652.97;;;8.60;74.43
41140;BME280;26881;48.784;9.192;2023-02-20T04:57:07;99660.34;;;8.49;74.42
41140;BME280;26881;48.784;9.192;2023-02-20T05:02:28;99673.97;;;8.29;75.21
41140;BME280;26881;48.784;9.192;2023-02-20T05:07:55;99675.19;;;8.18;75.99
41140;BME280;26881;48.784;9.192;2023-02-20T05:13:17;99662.16;;;8.18;75.48
41140;BME280;26881;48.784;9.192;2023-02-20T05:18:39;99663.03;;;8.17;75.22
41140;BME280;26881;48.784;9.192;2023-02-20T05:24:01;99668.25;;;8.17;75.22
41140;BME280;26881;48.784;9.192;2023-02-20T05:29:25;99665.84;;;8.11;75.85
41140;BME280;26881;48.784;9.192;2023-02-20T05:34:47;99660.00;;;8.03;76.05
41140;BME280;26881;48.784;9.192;2023-02-20T05:40:09;99660.16;;;7.98;76.27
41140;BME280;26881;48.784;9.192;2023-02-20T05:45:31;99660.06;;;8.01;75.68
41140;BME280;26881;48.784;9.192;2023-02-20T05:50:53;99657.16;;;8.11;75.76
41140;BME280;26881;48.784;9.192;2023-02-20T05:56:15;99665.03;;;8.09;75.46
41140;BME280;26881;48.784;9.192;2023-02-20T06:01:37;99662.22;;;8.15;74.98
41140;BME280;26881;48.784;9.192;2023-02-20T06:06:59;99666.00;;;8.07;75.94
41140;BME280;26881;48.784;9.192;2023-02-20T06:12:20;99662.88;;;7.95;76.08
41140;BME280;26881;48.784;9.192;2023-02-20T06:17:42;99670.31;;;8.06;75.93
41140;BME280;26881;48.784;9.192;2023-02-20T06:23:05;99672.50;;;8.20;74.76
41140;BME280;26881;48.784;9.192;2023-02-20T06:28:27;99673.81;;;8.07;75.34
41140;BME280;26881;48.784;9.192;2023-02-20T06:33:49;99672.50;;;7.92;76.10
41140;BME280;26881;48.784;9.192;2023-02-20T06:39:12;99674.72;;;7.76;76.65
41140;BME280;26881;48.784;9.192;2023-02-20T06:44:34;99681.25;;;7.91;76.10
41140;BME280;26881;48.784;9.192;2023-02-20T06:49:56;99690.75;;;7.92;75.42
41140;BME280;26881;48.784;9.192;2023-02-20T06:55:18;99688.25;;;7.89;75.89
41140;BME280;26881;48.784;9.192;2023-02-20T07:00:39;99697.31;;;7.75;76.21
41140;BME280;26881;48.784;9.192;2023-02-20T07:06:01;99700.88;;;8.01;75.44
41140;BME280;26881;48.784;9.192;2023-02-20T07:11:23;99703.78;;;7.92;75.55
41140;BME280;26881;48.784;9.192;2023-02-20T07:16:45;99700.06;;;7.99;74.87
41140;BME280;26881;48.784;9.192;2023-02-20T07:22:07;99705.09;;;8.05;75.05
41140;BME280;26881;48.784;9.192;2023-02-20T07:27:28;99704.69;;;8.19;74.33
41140;BME280;26881;48.784;9.192;2023-02-20T07:32:50;99708.78;;;8.28;73.91
41140;BME280;26881;48.784;9.192;2023-02-20T07:38:12;99716.94;;;8.15;73.82
41140;BME280;26881;48.784;9.192;2023-02-20T07:43:34;99709.34;;;8.09;74.45
41140;BME280;26881;48.784;9.192;2023-02-20T07:48:56;99697.72;;;8.19;74.08
41140;BME280;26881;48.784;9.192;2023-02-20T07:54:18;99702.53;;;8.32;73.49
41140;BME280;26881;48.784;9.192;2023-02-20T07:59:40;99700.03;;;8.29;72.38
41140;BME280;26881;48.784;9.192;2023-02-20T08:05:02;99691.66;;;8.47;72.16
41140;BME280;26881;48.784;9.192;2023-02-20T08:10:26;99694.84;;;8.55;71.34
41140;BME280;26881;48.784;9.192;2023-02-20T08:15:48;99682.91;;;8.48;71.40
41140;BME280;26881;48.784;9.192;2023-02-20T08:21:09;99672.50;;;8.48;71.78
41140;BME280;26881;48.784;9.192;2023-02-20T08:26:31;99672.13;;;8.60;71.00
41140;BME280;26881;48.784;9.192;2023-02-20T08:31:55;99666.94;;;8.59;71.11
41140;BME280;26881;48.784;9.192;2023-02-20T08:37:17;99673.38;;;8.74;70.49
41140;BME280;26881;48.784;9.192;2023-02-20T08:42:38;99664.56;;;8.78;70.76
41140;BME280;26881;48.784;9.192;2023-02-20T08:48:00;99662.72;;;8.81;70.46
41140;BME280;26881;48.784;9.192;2023-02-20T08:53:22;99658.13;;;8.88;70.08
41140;BME280;26881;48.784;9.192;2023-02-20T08:58:44;99661.28;;;8.98;68.30
41140;BME280;26881;48.784;9.192;2023-02-20T09:04:06;99664.41;;;9.07;67.69
41140;BME280;26881;48.784;9.192;2023-02-20T09:09:29;99648.59;;;9.12;67.80
41140;BME280;26881;48.784;9.192;2023-02-20T09:14:51;99640.97;;;9.06;69.14
41140;BME280;26881;48.784;9.192;2023-02-20T09:20:14;99633.66;;;9.16;68.69
41140;BME280;26881;48.784;9.192;2023-02-20T09:25:36;99630.44;;;9.33;66.68
41140;BME280;26881;48.784;9.192;2023-02-20T09:30:58;99637.22;;;9.37;67.48
41140;BME280;26881;48.784;9.192;2023-02-20T09:36:21;99624.00;;;9.41;67.18
41140;BME280;26881;48.784;9.192;2023-02-20T09:48:02;99607.50;;;9.86;65.12
41140;BME280;26881;48.784;9.192;2023-02-20T09:53:29;99608.41;;;10.07;64.34
41140;BME280;26881;48.784;9.192;2023-02-20T09:59:02;99601.50;;;10.27;63.96
41140;BME280;26881;48.784;9.192;2023-02-20T10:04:53;99597.59;;;10.37;62.90
41140;BME280;26881;48.784;9.192;2023-02-20T10:10:29;99597.31;;;10.45;62.26
41140;BME280;26881;48.784;9.192;2023-02-20T10:16:20;99585.03;;;10.47;62.08
41140;BME280;26881;48.784;9.192;2023-02-20T10:21:54;99590.09;;;10.50;61.92
41140;BME280;26881;48.784;9.192;2023-02-20T10:33:16;99578.00;;;10.47;62.42
41140;BME280;26881;48.784;9.192;2023-02-20T10:38:47;99583.06;;;10.52;61.81
41140;BME280;26881;48.784;9.192;2023-02-20T10:44:21;99570.75;;;10.54;60.87
41140;BME280;26881;48.784;9.192;2023-02-20T10:50:05;99571.22;;;10.64;61.27
41140;BME280;26881;48.784;9.192;2023-02-20T10:55:36;99558.13;;;10.64;61.34
41140;BME280;26881;48.784;9.192;2023-02-20T11:01:05;99560.94;;;10.80;59.32
41140;BME280;26881;48.784;9.192;2023-02-20T11:06:35;99556.28;;;10.86;60.64
41140;BME280;26881;48.784;9.192;2023-02-20T11:11:57;99545.31;;;10.97;60.19
41140;BME280;26881;48.784;9.192;2023-02-20T11:17:22;99539.31;;;11.14;57.91
41140;BME280;26881;48.784;9.192;2023-02-20T11:22:48;99535.72;;;11.35;58.73
41140;BME280;26881;48.784;9.192;2023-02-20T11:28:18;99529.91;;;11.65;58.38
41140;BME280;26881;48.784;9.192;2023-02-20T11:33:43;99506.56;;;11.97;56.42
41140;BME280;26881;48.784;9.192;2023-02-20T11:39:26;99507.72;;;12.09;56.97
41140;BME280;26881;48.784;9.192;2023-02-20T11:56:16;99471.53;;;12.33;54.53
41140;BME280;26881;48.784;9.192;2023-02-20T12:01:39;99466.03;;;12.37;53.40
41140;BME280;26881;48.784;9.192;2023-02-20T12:07:17;99449.81;;;12.47;53.89
41140;BME280;26881;48.784;9.192;2023-02-20T12:12:40;99445.53;;;12.61;53.21
41140;BME280;26881;48.784;9.192;2023-02-20T12:18:11;99426.09;;;12.81;53.41
41140;BME280;26881;48.784;9.192;2023-02-20T12:51:44;99368.22;;;14.20;48.10
41140;BME280;26881;48.784;9.192;2023-02-20T12:57:24;99346.78;;;14.26;47.46
41140;BME280;26881;48.784;9.192;2023-02-20T13:02:50;99350.06;;;14.29;48.17
41140;BME280;26881;48.784;9.192;2023-02-20T13:08:26;99334.38;;;14.28;47.77
41140;BME280;26881;48.784;9.192;2023-02-20T13:19:38;99317.94;;;14.24;46.87
41140;BME280;26881;48.784;9.192;2023-02-20T13:42:02;99252.03;;;14.26;45.63
41140;BME280;26881;48.784;9.192;2023-02-20T13:47:35;99245.66;;;14.30;44.37
41140;BME280;26881;48.784;9.192;2023-02-20T13:52:59;99240.94;;;14.35;44.45
41140;BME280;26881;48.784;9.192;2023-02-20T13:58:25;99229.88;;;14.30;44.10
41140;BME280;26881;48.784;9.192;2023-02-20T14:04:02;99220.47;;;14.26;43.13
41140;BME280;26881;48.784;9.192;2023-02-20T14:09:27;99217.56;;;14.30;41.91
41140;BME280;26881;48.784;9.192;2023-02-20T14:14:52;99215.75;;;14.31;42.57
41140;BME280;26881;48.784;9.192;2023-02-20T14:20:30;99212.94;;;14.34;40.88
41140;BME280;26881;48.784;9.192;2023-02-20T14:25:57;99222.53;;;14.35;39.12
41140;BME280;26881;48.784;9.192;2023-02-20T14:31:34;99201.91;;;14.42;37.63
41140;BME280;26881;48.784;9.192;2023-02-20T14:37:03;99204.91;;;14.50;37.11
41140;BME280;26881;48.784;9.192;2023-02-20T14:42:27;99217.50;;;14.59;35.78
41140;BME280;26881;48.784;9.192;2023-02-20T14:47:58;99179.03;;;14.57;36.50
41140;BME280;26881;48.784;9.192;2023-02-20T14:53:20;99185.81;;;14.61;39.96
41140;BME280;26881;48.784;9.192;2023-02-20T14:58:45;99179.47;;;14.63;41.55
41140;BME280;26881;48.784;9.192;2023-02-20T15:04:12;99165.47;;;14.63;40.36
41140;BME280;26881;48.784;9.192;2023-02-20T15:09:41;99168.88;;;14.65;38.77
41140;BME280;26881;48.784;9.192;2023-02-20T15:15:11;99177.69;;;14.64;37.15
41140;BME280;26881;48.784;9.192;2023-02-20T15:20:41;99169.78;;;14.64;38.32
41140;BME280;26881;48.784;9.192;2023-02-20T15:26:30;99166.75;;;14.57;37.55
41140;BME280;26881;48.784;9.192;2023-02-20T15:31:57;99172.28;;;14.52;38.36
41140;BME280;26881;48.784;9.192;2023-02-20T15:37:28;99174.03;;;14.52;36.34
41140;BME280;26881;48.784;9.192;2023-02-20T15:43:12;99173.19;;;14.39;36.88
41140;BME280;26881;48.784;9.192;2023-02-20T15:48:54;99165.13;;;14.27;36.61
41140;BME280;26881;48.784;9.192;2023-02-20T15:54:18;99166.34;;;14.22;37.08
41140;BME280;26881;48.784;9.192;2023-02-20T15:59:39;99152.88;;;14.13;37.48
41140;BME280;26881;48.784;9.192;2023-02-20T16:05:01;99154.97;;;14.08;35.76
41140;BME280;26881;48.784;9.192;2023-02-20T16:10:23;99159.09;;;13.98;37.14
41140;BME280;26881;48.784;9.192;2023-02-20T16:15:46;99160.72;;;13.86;37.50
41140;BME280;26881;48.784;9.192;2023-02-20T16:21:12;99163.09;;;13.77;38.92
41140;BME280;26881;48.784;9.192;2023-02-20T16:26:35;99153.06;;;13.69;39.47
41140;BME280;26881;48.784;9.192;2023-02-20T16:37:22;99147.25;;;13.49;41.16
41140;BME280;26881;48.784;9.192;2023-02-20T16:42:45;99153.94;;;13.41;41.07
41140;BME280;26881;48.784;9.192;2023-02-20T16:48:11;99151.38;;;13.25;41.34
41140;BME280;26881;48.784;9.192;2023-02-20T16:53:34;99147.16;;;13.22;40.63
41140;BME280;26881;48.784;9.192;2023-02-20T16:58:56;99146.47;;;13.19;40.81
41140;BME280;26881;48.784;9.192;2023-02-20T17:04:21;99144.69;;;13.05;40.25
41140;BME280;26881;48.784;9.192;2023-02-20T17:09:44;99148.41;;;12.86;41.08
41140;BME280;26881;48.784;9.192;2023-02-20T17:15:08;99148.34;;;12.58;42.38
41140;BME280;26881;48.784;9.192;2023-02-20T17:20:30;99152.66;;;12.59;40.79
41140;BME280;26881;48.784;9.192;2023-02-20T17:25:52;99149.44;;;12.54;40.52
41140;BME280;26881;48.784;9.192;2023-02-20T17:31:13;99160.81;;;12.38;40.99
41140;BME280;26881;48.784;9.192;2023-02-20T17:36:36;99167.94;;;12.36;41.10
41140;BME280;26881;48.784;9.192;2023-02-20T17:41:58;99166.09;;;12.22;41.64
41140;BME280;26881;48.784;9.192;2023-02-20T17:47:21;99170.31;;;12.09;41.82
41140;BME280;26881;48.784;9.192;2023-02-20T17:52:43;99163.47;;;11.91;42.98
41140;BME280;26881;48.784;9.192;2023-02-20T17:58:05;99161.44;;;11.80;41.90
41140;BME280;26881;48.784;9.192;2023-02-20T18:03:27;99160.31;;;11.68;42.14
41140;BME280;26881;48.784;9.192;2023-02-20T18:08:49;99158.75;;;11.48;44.67
41140;BME280;26881;48.784;9.192;2023-02-20T18:14:12;99160.19;;;11.38;44.97
41140;BME280;26881;48.784;9.192;2023-02-20T18:19:34;99162.28;;;11.31;44.82
41140;BME280;26881;48.784;9.192;2023-02-20T18:24:56;99165.22;;;11.25;44.68
41140;BME280;26881;48.784;9.192;2023-02-20T18:30:18;99166.88;;;11.10;44.95
41140;BME280;26881;48.784;9.192;2023-02-20T18:35:40;99181.88;;;11.07;45.31
41140;BME280;26881;48.784;9.192;2023-02-20T18:41:02;99176.44;;;10.94;44.16
41140;BME280;26881;48.784;9.192;2023-02-20T18:46:26;99181.50;;;10.97;43.30
41140;BME280;26881;48.784;9.192;2023-02-20T18:51:48;99187.53;;;10.82;44.84
41140;BME280;26881;48.784;9.192;2023-02-20T18:57:10;99175.66;;;10.74;44.05
41140;BME280;26881;48.784;9.192;2023-02-20T19:02:32;99169.81;;;10.52;43.67
41140;BME280;26881;48.784;9.192;2023-02-20T19:07:54;99171.81;;;10.47;43.93
41140;BME280;26881;48.784;9.192;2023-02-20T19:13:15;99169.53;;;10.39;43.92
41140;BME280;26881;48.784;9.192;2023-02-20T19:18:43;99162.63;;;10.38;43.96
41140;BME280;26881;48.784;9.192;2023-02-20T19:24:11;99169.94;;;10.31;44.54
41140;BME280;26881;48.784;9.192;2023-02-20T19:29:33;99172.69;;;10.28;45.11
41140;BME280;26881;48.784;9.192;2023-02-20T19:34:55;99170.19;;;10.25;45.25
41140;BME280;26881;48.784;9.192;2023-02-20T19:40:17;99176.78;;;10.15;45.53
41140;BME280;26881;48.784;9.192;2023-02-20T19:45:38;99171.16;;;10.05;45.29
41140;BME280;26881;48.784;9.192;2023-02-20T19:51:01;99172.00;;;10.06;46.04
41140;BME280;26881;48.784;9.192;2023-02-20T19:56:23;99171.06;;;10.07;46.38
41140;BME280;26881;48.784;9.192;2023-02-20T20:01:48;99163.53;;;10.01;45.79
41140;BME280;26881;48.784;9.192;2023-02-20T20:07:09;99167.56;;;9.89;46.91
41140;BME280;26881;48.784;9.192;2023-02-20T20:12:31;99169.59;;;9.82;46.52
41140;BME280;26881;48.784;9.192;2023-02-20T20:18:10;99171.38;;;9.82;46.90
41140;BME280;26881;48.784;9.192;2023-02-20T20:23:32;99161.94;;;9.79;47.38
41140;BME280;26881;48.784;9.192;2023-02-20T20:28:54;99168.06;;;9.78;47.18
41140;BME280;26881;48.784;9.192;2023-02-20T20:34:16;99173.84;;;9.66;48.01
41140;BME280;26881;48.784;9.192;2023-02-20T20:39:40;99164.19;;;9.68;48.37
41140;BME280;26881;48.784;9.192;2023-02-20T20:45:02;99164.44;;;9.62;48.21
41140;BME280;26881;48.784;9.192;2023-02-20T20:50:24;99167.69;;;9.48;48.70
41140;BME280;26881;48.784;9.192;2023-02-20T20:55:49;99173.31;;;9.39;48.91
41140;BME280;26881;48.784;9.192;2023-02-20T21:01:11;99174.50;;;9.32;49.58
41140;BME280;26881;48.784;9.192;2023-02-20T21:06:33;99169.22;;;9.33;49.33
41140;BME280;26881;48.784;9.192;2023-02-20T21:11:55;99171.69;;;9.36;49.51
41140;BME280;26881;48.784;9.192;2023-02-20T21:17:17;99165.44;;;9.20;49.74
41140;BME280;26881;48.784;9.192;2023-02-20T21:22:39;99176.94;;;9.16;50.24
41140;BME280;26881;48.784;9.192;2023-02-20T21:28:03;99162.41;;;9.10;49.96
41140;BME280;26881;48.784;9.192;2023-02-20T21:33:25;99159.53;;;9.16;50.49
41140;BME280;26881;48.784;9.192;2023-02-20T21:38:47;99163.66;;;9.01;50.73
41140;BME280;26881;48.784;9.192;2023-02-20T21:44:17;99165.72;;;9.14;51.03
41140;BME280;26881;48.784;9.192;2023-02-20T21:49:48;99155.91;;;9.00;51.35
41140;BME280;26881;48.784;9.192;2023-02-20T21:55:13;99165.59;;;8.76;51.22
41140;BME280;26881;48.784;9.192;2023-02-20T22:00:35;99163.38;;;8.67;51.19
41140;BME280;26881;48.784;9.192;2023-02-20T22:05:56;99159.78;;;8.49;52.17
41140;BME280;26881;48.784;9.192;2023-02-20T22:11:18;99156.91;;;8.55;52.30
41140;BME280;26881;48.784;9.192;2023-02-20T22:16:58;99153.78;;;8.67;52.06
41140;BME280;26881;48.784;9.192;2023-02-20T22:22:39;99155.56;;;8.67;52.18
41140;BME280;26881;48.784;9.192;2023-02-20T22:28:19;99157.59;;;8.38;53.16
41140;BME280;26881;48.784;9.192;2023-02-20T22:33:59;99158.41;;;8.40;53.69
41140;BME280;26881;48.784;9.192;2023-02-20T22:39:40;99162.00;;;8.36;53.47
41140;BME280;26881;48.784;9.192;2023-02-20T22:45:20;99167.84;;;8.42;53.75
41140;BME280;26881;48.784;9.192;2023-02-20T22:51:01;99162.59;;;8.44;53.46
41140;BME280;26881;48.784;9.192;2023-02-20T22:56:41;99158.31;;;8.19;54.05
41140;BME280;26881;48.784;9.192;2023-02-20T23:02:21;99155.59;;;8.22;54.16
41140;BME280;26881;48.784;9.192;2023-02-20T23:08:01;99160.75;;;8.24;54.23
41140;BME280;26881;48.784;9.192;2023-02-20T23:13:44;99155.38;;;8.07;54.91
41140;BME280;26881;48.784;9.192;2023-02-20T23:19:25;99143.94;;;7.87;55.52
41140;BME280;26881;48.784;9.192;2023-02-20T23:25:05;99136.09;;;7.89;55.69
41140;BME280;26881;48.784;9.192;2023-02-20T23:30:46;99143.69;;;7.95;55.89
41140;BME280;26881;48.784;9.192;2023-02-20T23:36:26;99130.25;;;8.04;55.85
41140;BME280;26881;48.784;9.192;2023-02-20T23:42:06;99134.19;;;7.92;57.36
41140;BME280;26881;48.784;9.192;2023-02-20T23:47:47;99127.78;;;8.01;57.06
41140;BME280;26881;48.784;9.192;2023-02-20T23:53:28;99129.31;;;8.07;56.77
41140;BME280;26881;48.784;9.192;2023-02-20T23:59:09;99126.94;;;8.00;57.00
